sensor_id;sensor_type;location;lat;lon;timestamp;P1;durP1;ratioP1;P2;durP2;ratioP2
18772;SDS011;9515;50.810;4.418;2022-07-23T00:00:49;25.73;;;18.95;;
18772;SDS011;9515;50.810;4.418;2022-07-23T00:03:15;20.25;;;17.48;;
18772;SDS011;9515;50.810;4.418;2022-07-23T00:05:40;20.92;;;17.70;;
18772;SDS011;9515;50.810;4.418;2022-07-23T00:08:06;21.98;;;18.17;;
18772;SDS011;9515;50.810;4.418;2022-07-23T00:10:33;23.75;;;18.25;;
18772;SDS011;9515;50.810;4.418;2022-07-23T00:12:59;24.65;;;19.27;;
18772;SDS011;9515;50.810;4.418;2022-07-23T00:15:24;22.50;;;17.83;;
18772;SDS011;9515;50.810;4.418;2022-07-23T00:17:50;21.92;;;18.85;;
18772;SDS011;9515;50.810;4.418;2022-07-23T00:20:16;23.80;;;17.23;;
18772;SDS011;9515;50.810;4.418;2022-07-23T00:22:46;22.70;;;18.08;;
18772;SDS011;9515;50.810;4.418;2022-07-23T00:25:16;19.98;;;17.25;;
18772;SDS011;9515;50.810;4.418;2022-07-23T00:27:41;26.50;;;18.42;;
18772;SDS011;9515;50.810;4.418;2022-07-23T00:30:09;24.33;;;18.48;;
18772;SDS011;9515;50.810;4.418;2022-07-23T00:32:48;22.02;;;18.13;;
18772;SDS011;9515;50.810;4.418;2022-07-23T00:35:16;23.90;;;19.10;;
18772;SDS011;9515;50.810;4.418;2022-07-23T00:37:45;22.42;;;18.08;;
18772;SDS011;9515;50.810;4.418;2022-07-23T00:40:11;22.25;;;19.13;;
18772;SDS011;9515;50.810;4.418;2022-07-23T00:42:37;22.60;;;18.30;;
18772;SDS011;9515;50.810;4.418;2022-07-23T00:45:03;22.48;;;18.27;;
18772;SDS011;9515;50.810;4.418;2022-07-23T00:47:29;21.00;;;18.77;;
18772;SDS011;9515;50.810;4.418;2022-07-23T00:49:55;26.02;;;19.67;;
18772;SDS011;9515;50.810;4.418;2022-07-23T00:52:20;22.75;;;19.70;;
18772;SDS011;9515;50.810;4.418;2022-07-23T00:54:46;24.15;;;19.50;;
18772;SDS011;9515;50.810;4.418;2022-07-23T00:57:13;24.70;;;18.38;;
18772;SDS011;9515;50.810;4.418;2022-07-23T00:59:39;21.60;;;19.35;;
18772;SDS011;9515;50.810;4.418;2022-07-23T01:02:05;26.10;;;19.90;;
18772;SDS011;9515;50.810;4.418;2022-07-23T01:04:31;22.75;;;19.60;;
18772;SDS011;9515;50.810;4.418;2022-07-23T01:06:57;27.15;;;19.40;;
18772;SDS011;9515;50.810;4.418;2022-07-23T01:09:22;24.13;;;19.98;;
18772;SDS011;9515;50.810;4.418;2022-07-23T01:11:48;23.50;;;19.42;;
18772;SDS011;9515;50.810;4.418;2022-07-23T01:14:17;24.73;;;20.30;;
18772;SDS011;9515;50.810;4.418;2022-07-23T01:16:44;26.25;;;20.80;;
18772;SDS011;9515;50.810;4.418;2022-07-23T01:19:12;25.10;;;20.75;;
18772;SDS011;9515;50.810;4.418;2022-07-23T01:21:39;28.77;;;22.08;;
18772;SDS011;9515;50.810;4.418;2022-07-23T01:24:07;27.58;;;22.20;;
18772;SDS011;9515;50.810;4.418;2022-07-23T01:26:34;24.52;;;20.80;;
18772;SDS011;9515;50.810;4.418;2022-07-23T01:29:00;25.15;;;20.65;;
18772;SDS011;9515;50.810;4.418;2022-07-23T01:31:26;25.23;;;20.98;;
18772;SDS011;9515;50.810;4.418;2022-07-23T01:33:52;30.67;;;22.98;;
18772;SDS011;9515;50.810;4.418;2022-07-23T01:36:17;25.10;;;21.23;;
18772;SDS011;9515;50.810;4.418;2022-07-23T01:38:43;27.15;;;22.55;;
18772;SDS011;9515;50.810;4.418;2022-07-23T01:41:09;28.33;;;22.83;;
18772;SDS011;9515;50.810;4.418;2022-07-23T01:43:35;24.65;;;21.92;;
18772;SDS011;9515;50.810;4.418;2022-07-23T01:46:01;27.35;;;22.25;;
18772;SDS011;9515;50.810;4.418;2022-07-23T01:48:26;25.83;;;21.83;;
18772;SDS011;9515;50.810;4.418;2022-07-23T01:50:52;25.42;;;21.15;;
18772;SDS011;9515;50.810;4.418;2022-07-23T01:53:18;25.15;;;21.52;;
18772;SDS011;9515;50.810;4.418;2022-07-23T01:55:43;27.70;;;20.77;;
18772;SDS011;9515;50.810;4.418;2022-07-23T01:58:09;25.63;;;22.15;;
18772;SDS011;9515;50.810;4.418;2022-07-23T02:00:35;25.52;;;21.77;;
18772;SDS011;9515;50.810;4.418;2022-07-23T02:03:01;26.02;;;21.48;;
18772;SDS011;9515;50.810;4.418;2022-07-23T02:05:26;28.08;;;22.60;;
18772;SDS011;9515;50.810;4.418;2022-07-23T02:07:56;31.92;;;23.67;;
18772;SDS011;9515;50.810;4.418;2022-07-23T02:10:23;27.00;;;22.27;;
18772;SDS011;9515;50.810;4.418;2022-07-23T02:12:49;31.77;;;24.38;;
18772;SDS011;9515;50.810;4.418;2022-07-23T02:15:15;26.58;;;22.95;;
18772;SDS011;9515;50.810;4.418;2022-07-23T02:17:41;28.38;;;22.50;;
18772;SDS011;9515;50.810;4.418;2022-07-23T02:20:07;29.47;;;23.70;;
18772;SDS011;9515;50.810;4.418;2022-07-23T02:22:33;28.73;;;24.13;;
18772;SDS011;9515;50.810;4.418;2022-07-23T02:24:59;28.15;;;23.42;;
18772;SDS011;9515;50.810;4.418;2022-07-23T02:27:25;29.40;;;22.90;;
18772;SDS011;9515;50.810;4.418;2022-07-23T02:29:51;30.45;;;23.67;;
18772;SDS011;9515;50.810;4.418;2022-07-23T02:32:16;29.38;;;24.00;;
18772;SDS011;9515;50.810;4.418;2022-07-23T02:34:42;31.10;;;24.60;;
18772;SDS011;9515;50.810;4.418;2022-07-23T02:37:08;27.27;;;24.02;;
18772;SDS011;9515;50.810;4.418;2022-07-23T02:39:34;31.13;;;24.35;;
18772;SDS011;9515;50.810;4.418;2022-07-23T02:42:00;29.60;;;23.65;;
18772;SDS011;9515;50.810;4.418;2022-07-23T02:44:26;27.20;;;22.85;;
18772;SDS011;9515;50.810;4.418;2022-07-23T02:46:52;27.70;;;23.65;;
18772;SDS011;9515;50.810;4.418;2022-07-23T02:49:18;31.27;;;24.25;;
18772;SDS011;9515;50.810;4.418;2022-07-23T02:51:43;27.50;;;23.08;;
18772;SDS011;9515;50.810;4.418;2022-07-23T02:54:09;25.13;;;22.17;;
18772;SDS011;9515;50.810;4.418;2022-07-23T02:56:35;28.33;;;23.23;;
18772;SDS011;9515;50.810;4.418;2022-07-23T02:59:01;29.13;;;23.10;;
18772;SDS011;9515;50.810;4.418;2022-07-23T03:01:26;32.40;;;23.08;;
18772;SDS011;9515;50.810;4.418;2022-07-23T03:03:52;29.97;;;24.27;;
18772;SDS011;9515;50.810;4.418;2022-07-23T03:06:18;30.73;;;24.17;;
18772;SDS011;9515;50.810;4.418;2022-07-23T03:08:43;25.77;;;22.40;;
18772;SDS011;9515;50.810;4.418;2022-07-23T03:11:09;26.33;;;22.50;;
18772;SDS011;9515;50.810;4.418;2022-07-23T03:13:39;26.80;;;22.75;;
18772;SDS011;9515;50.810;4.418;2022-07-23T03:16:06;28.73;;;22.70;;
18772;SDS011;9515;50.810;4.418;2022-07-23T03:18:32;27.07;;;23.83;;
18772;SDS011;9515;50.810;4.418;2022-07-23T03:20:58;26.20;;;22.77;;
18772;SDS011;9515;50.810;4.418;2022-07-23T03:23:24;28.10;;;22.17;;
18772;SDS011;9515;50.810;4.418;2022-07-23T03:25:49;26.75;;;22.60;;
18772;SDS011;9515;50.810;4.418;2022-07-23T03:28:15;25.37;;;21.50;;
18772;SDS011;9515;50.810;4.418;2022-07-23T03:30:42;28.57;;;22.97;;
18772;SDS011;9515;50.810;4.418;2022-07-23T03:33:11;25.98;;;22.50;;
18772;SDS011;9515;50.810;4.418;2022-07-23T03:35:41;24.58;;;20.92;;
18772;SDS011;9515;50.810;4.418;2022-07-23T03:38:07;24.60;;;20.83;;
18772;SDS011;9515;50.810;4.418;2022-07-23T03:40:33;23.55;;;20.48;;
18772;SDS011;9515;50.810;4.418;2022-07-23T03:42:58;26.90;;;20.40;;
18772;SDS011;9515;50.810;4.418;2022-07-23T03:45:24;25.70;;;21.35;;
18772;SDS011;9515;50.810;4.418;2022-07-23T03:47:50;24.83;;;20.70;;
18772;SDS011;9515;50.810;4.418;2022-07-23T03:50:15;23.45;;;20.63;;
18772;SDS011;9515;50.810;4.418;2022-07-23T03:52:41;23.25;;;19.70;;
18772;SDS011;9515;50.810;4.418;2022-07-23T03:55:07;26.58;;;19.40;;
18772;SDS011;9515;50.810;4.418;2022-07-23T03:57:33;26.75;;;20.25;;
18772;SDS011;9515;50.810;4.418;2022-07-23T03:59:58;26.55;;;20.88;;
18772;SDS011;9515;50.810;4.418;2022-07-23T04:02:24;24.75;;;20.48;;
18772;SDS011;9515;50.810;4.418;2022-07-23T04:04:50;21.80;;;18.73;;
18772;SDS011;9515;50.810;4.418;2022-07-23T04:07:16;24.45;;;19.23;;
18772;SDS011;9515;50.810;4.418;2022-07-23T04:09:42;23.97;;;17.00;;
18772;SDS011;9515;50.810;4.418;2022-07-23T04:12:09;21.90;;;18.60;;
18772;SDS011;9515;50.810;4.418;2022-07-23T04:14:35;21.75;;;19.42;;
18772;SDS011;9515;50.810;4.418;2022-07-23T04:17:01;21.02;;;18.88;;
18772;SDS011;9515;50.810;4.418;2022-07-23T04:19:26;23.00;;;18.33;;
18772;SDS011;9515;50.810;4.418;2022-07-23T04:21:52;20.45;;;17.52;;
18772;SDS011;9515;50.810;4.418;2022-07-23T04:24:18;23.60;;;17.95;;
18772;SDS011;9515;50.810;4.418;2022-07-23T04:26:44;18.92;;;16.65;;
18772;SDS011;9515;50.810;4.418;2022-07-23T04:29:10;19.70;;;16.02;;
18772;SDS011;9515;50.810;4.418;2022-07-23T04:31:36;17.50;;;15.68;;
18772;SDS011;9515;50.810;4.418;2022-07-23T04:34:02;20.27;;;15.63;;
18772;SDS011;9515;50.810;4.418;2022-07-23T04:36:28;18.05;;;15.45;;
18772;SDS011;9515;50.810;4.418;2022-07-23T04:38:54;18.92;;;15.70;;
18772;SDS011;9515;50.810;4.418;2022-07-23T04:41:20;17.05;;;15.25;;
18772;SDS011;9515;50.810;4.418;2022-07-23T04:43:46;16.38;;;14.65;;
18772;SDS011;9515;50.810;4.418;2022-07-23T04:46:11;16.83;;;15.02;;
18772;SDS011;9515;50.810;4.418;2022-07-23T04:48:38;15.35;;;13.63;;
18772;SDS011;9515;50.810;4.418;2022-07-23T04:51:04;15.98;;;13.52;;
18772;SDS011;9515;50.810;4.418;2022-07-23T04:53:31;15.88;;;14.38;;
18772;SDS011;9515;50.810;4.418;2022-07-23T04:55:56;15.65;;;13.63;;
18772;SDS011;9515;50.810;4.418;2022-07-23T04:58:22;16.52;;;14.55;;
18772;SDS011;9515;50.810;4.418;2022-07-23T05:00:48;15.88;;;14.18;;
18772;SDS011;9515;50.810;4.418;2022-07-23T05:03:14;15.63;;;13.90;;
18772;SDS011;9515;50.810;4.418;2022-07-23T05:05:40;17.55;;;14.80;;
18772;SDS011;9515;50.810;4.418;2022-07-23T05:08:05;15.98;;;13.95;;
18772;SDS011;9515;50.810;4.418;2022-07-23T05:10:31;15.55;;;13.98;;
18772;SDS011;9515;50.810;4.418;2022-07-23T05:12:57;14.90;;;13.50;;
18772;SDS011;9515;50.810;4.418;2022-07-23T05:15:23;16.40;;;13.60;;
18772;SDS011;9515;50.810;4.418;2022-07-23T05:17:49;14.93;;;13.43;;
18772;SDS011;9515;50.810;4.418;2022-07-23T05:20:15;15.57;;;14.02;;
18772;SDS011;9515;50.810;4.418;2022-07-23T05:22:40;15.10;;;13.55;;
18772;SDS011;9515;50.810;4.418;2022-07-23T05:25:06;18.75;;;14.07;;
18772;SDS011;9515;50.810;4.418;2022-07-23T05:27:32;15.93;;;14.27;;
18772;SDS011;9515;50.810;4.418;2022-07-23T05:29:58;16.73;;;13.23;;
18772;SDS011;9515;50.810;4.418;2022-07-23T05:32:24;15.05;;;13.55;;
18772;SDS011;9515;50.810;4.418;2022-07-23T05:34:50;15.35;;;13.82;;
18772;SDS011;9515;50.810;4.418;2022-07-23T05:37:15;16.77;;;14.85;;
18772;SDS011;9515;50.810;4.418;2022-07-23T05:39:41;16.90;;;15.00;;
18772;SDS011;9515;50.810;4.418;2022-07-23T05:42:07;15.95;;;13.95;;
18772;SDS011;9515;50.810;4.418;2022-07-23T05:44:33;19.42;;;14.93;;
18772;SDS011;9515;50.810;4.418;2022-07-23T05:46:58;18.30;;;14.63;;
18772;SDS011;9515;50.810;4.418;2022-07-23T05:49:24;20.52;;;14.82;;
18772;SDS011;9515;50.810;4.418;2022-07-23T05:51:50;19.70;;;14.75;;
18772;SDS011;9515;50.810;4.418;2022-07-23T05:54:15;17.50;;;15.65;;
18772;SDS011;9515;50.810;4.418;2022-07-23T05:56:41;17.63;;;15.75;;
18772;SDS011;9515;50.810;4.418;2022-07-23T05:59:07;17.05;;;15.27;;
18772;SDS011;9515;50.810;4.418;2022-07-23T06:01:33;16.45;;;14.75;;
18772;SDS011;9515;50.810;4.418;2022-07-23T06:03:59;16.52;;;14.82;;
18772;SDS011;9515;50.810;4.418;2022-07-23T06:06:24;18.00;;;14.55;;
18772;SDS011;9515;50.810;4.418;2022-07-23T06:08:50;14.93;;;13.43;;
18772;SDS011;9515;50.810;4.418;2022-07-23T06:11:16;16.40;;;14.43;;
18772;SDS011;9515;50.810;4.418;2022-07-23T06:13:41;15.43;;;13.82;;
18772;SDS011;9515;50.810;4.418;2022-07-23T06:16:07;16.17;;;13.38;;
18772;SDS011;9515;50.810;4.418;2022-07-23T06:18:33;15.40;;;13.93;;
18772;SDS011;9515;50.810;4.418;2022-07-23T06:20:59;15.13;;;13.73;;
18772;SDS011;9515;50.810;4.418;2022-07-23T06:23:24;15.77;;;13.93;;
18772;SDS011;9515;50.810;4.418;2022-07-23T06:25:50;14.82;;;13.30;;
18772;SDS011;9515;50.810;4.418;2022-07-23T06:28:15;15.18;;;13.48;;
18772;SDS011;9515;50.810;4.418;2022-07-23T06:30:41;15.00;;;13.20;;
18772;SDS011;9515;50.810;4.418;2022-07-23T06:33:07;14.68;;;12.98;;
18772;SDS011;9515;50.810;4.418;2022-07-23T06:35:33;13.77;;;12.32;;
18772;SDS011;9515;50.810;4.418;2022-07-23T06:37:59;14.35;;;12.55;;
18772;SDS011;9515;50.810;4.418;2022-07-23T06:40:24;13.35;;;11.95;;
18772;SDS011;9515;50.810;4.418;2022-07-23T06:42:50;13.40;;;11.95;;
18772;SDS011;9515;50.810;4.418;2022-07-23T06:45:16;14.90;;;12.50;;
18772;SDS011;9515;50.810;4.418;2022-07-23T06:47:42;12.95;;;11.73;;
18772;SDS011;9515;50.810;4.418;2022-07-23T06:50:08;14.40;;;13.00;;
18772;SDS011;9515;50.810;4.418;2022-07-23T06:52:34;13.80;;;12.23;;
18772;SDS011;9515;50.810;4.418;2022-07-23T06:55:00;13.98;;;12.57;;
18772;SDS011;9515;50.810;4.418;2022-07-23T06:57:26;12.70;;;11.18;;
18772;SDS011;9515;50.810;4.418;2022-07-23T06:59:52;13.35;;;11.98;;
18772;SDS011;9515;50.810;4.418;2022-07-23T07:02:18;13.60;;;12.20;;
18772;SDS011;9515;50.810;4.418;2022-07-23T07:04:44;12.98;;;11.15;;
18772;SDS011;9515;50.810;4.418;2022-07-23T07:07:10;13.52;;;11.75;;
18772;SDS011;9515;50.810;4.418;2022-07-23T07:09:37;13.27;;;11.88;;
18772;SDS011;9515;50.810;4.418;2022-07-23T07:12:02;11.75;;;10.55;;
18772;SDS011;9515;50.810;4.418;2022-07-23T07:14:29;15.90;;;10.95;;
18772;SDS011;9515;50.810;4.418;2022-07-23T07:16:55;11.25;;;10.15;;
18772;SDS011;9515;50.810;4.418;2022-07-23T07:19:20;11.48;;;10.27;;
18772;SDS011;9515;50.810;4.418;2022-07-23T07:21:46;10.20;;;9.30;;
18772;SDS011;9515;50.810;4.418;2022-07-23T07:24:12;13.50;;;10.90;;
18772;SDS011;9515;50.810;4.418;2022-07-23T07:26:37;11.65;;;10.50;;
18772;SDS011;9515;50.810;4.418;2022-07-23T07:29:04;11.73;;;10.50;;
18772;SDS011;9515;50.810;4.418;2022-07-23T07:31:30;10.98;;;9.88;;
18772;SDS011;9515;50.810;4.418;2022-07-23T07:33:56;12.05;;;10.77;;
18772;SDS011;9515;50.810;4.418;2022-07-23T07:36:22;14.95;;;11.18;;
18772;SDS011;9515;50.810;4.418;2022-07-23T07:38:47;12.68;;;11.35;;
18772;SDS011;9515;50.810;4.418;2022-07-23T07:41:13;12.55;;;10.95;;
18772;SDS011;9515;50.810;4.418;2022-07-23T07:43:39;12.10;;;10.93;;
18772;SDS011;9515;50.810;4.418;2022-07-23T07:46:05;11.75;;;10.55;;
18772;SDS011;9515;50.810;4.418;2022-07-23T07:48:35;12.52;;;11.20;;
18772;SDS011;9515;50.810;4.418;2022-07-23T07:51:03;12.73;;;10.63;;
18772;SDS011;9515;50.810;4.418;2022-07-23T07:53:29;12.48;;;10.35;;
18772;SDS011;9515;50.810;4.418;2022-07-23T07:55:55;14.13;;;10.82;;
18772;SDS011;9515;50.810;4.418;2022-07-23T07:58:21;13.05;;;10.05;;
18772;SDS011;9515;50.810;4.418;2022-07-23T08:00:47;12.27;;;11.07;;
18772;SDS011;9515;50.810;4.418;2022-07-23T08:03:13;11.55;;;10.45;;
18772;SDS011;9515;50.810;4.418;2022-07-23T08:05:38;11.73;;;10.35;;
18772;SDS011;9515;50.810;4.418;2022-07-23T08:08:04;12.45;;;9.65;;
18772;SDS011;9515;50.810;4.418;2022-07-23T08:10:30;12.45;;;9.52;;
18772;SDS011;9515;50.810;4.418;2022-07-23T08:12:56;9.85;;;8.90;;
18772;SDS011;9515;50.810;4.418;2022-07-23T08:15:24;13.85;;;10.27;;
18772;SDS011;9515;50.810;4.418;2022-07-23T08:17:51;13.07;;;9.90;;
18772;SDS011;9515;50.810;4.418;2022-07-23T08:20:18;10.27;;;9.20;;
18772;SDS011;9515;50.810;4.418;2022-07-23T08:22:45;11.40;;;10.20;;
18772;SDS011;9515;50.810;4.418;2022-07-23T08:25:36;14.10;;;10.43;;
18772;SDS011;9515;50.810;4.418;2022-07-23T08:28:04;11.45;;;10.35;;
18772;SDS011;9515;50.810;4.418;2022-07-23T08:30:31;11.10;;;9.73;;
18772;SDS011;9515;50.810;4.418;2022-07-23T08:32:59;13.00;;;10.75;;
18772;SDS011;9515;50.810;4.418;2022-07-23T08:35:31;10.80;;;8.88;;
18772;SDS011;9515;50.810;4.418;2022-07-23T08:38:02;12.40;;;10.10;;
18772;SDS011;9515;50.810;4.418;2022-07-23T08:40:30;12.07;;;9.35;;
18772;SDS011;9515;50.810;4.418;2022-07-23T08:42:58;12.25;;;9.85;;
18772;SDS011;9515;50.810;4.418;2022-07-23T08:45:24;12.55;;;9.27;;
18772;SDS011;9515;50.810;4.418;2022-07-23T08:47:51;10.38;;;9.20;;
18772;SDS011;9515;50.810;4.418;2022-07-23T08:50:19;10.73;;;9.15;;
18772;SDS011;9515;50.810;4.418;2022-07-23T08:52:46;10.63;;;8.85;;
18772;SDS011;9515;50.810;4.418;2022-07-23T08:55:15;11.50;;;9.32;;
18772;SDS011;9515;50.810;4.418;2022-07-23T08:57:49;9.57;;;8.70;;
18772;SDS011;9515;50.810;4.418;2022-07-23T09:00:16;10.23;;;8.98;;
18772;SDS011;9515;50.810;4.418;2022-07-23T09:02:43;11.48;;;8.80;;
18772;SDS011;9515;50.810;4.418;2022-07-23T09:05:11;13.77;;;9.10;;
18772;SDS011;9515;50.810;4.418;2022-07-23T09:07:38;10.70;;;8.45;;
18772;SDS011;9515;50.810;4.418;2022-07-23T09:10:45;11.05;;;8.68;;
18772;SDS011;9515;50.810;4.418;2022-07-23T09:16:02;11.48;;;9.00;;
18772;SDS011;9515;50.810;4.418;2022-07-23T09:18:37;10.57;;;8.38;;
18772;SDS011;9515;50.810;4.418;2022-07-23T09:21:14;10.45;;;8.30;;
18772;SDS011;9515;50.810;4.418;2022-07-23T09:23:54;10.68;;;8.45;;
18772;SDS011;9515;50.810;4.418;2022-07-23T09:34:25;8.48;;;7.47;;
18772;SDS011;9515;50.810;4.418;2022-07-23T09:36:54;8.18;;;7.28;;
18772;SDS011;9515;50.810;4.418;2022-07-23T09:39:27;10.68;;;7.47;;
18772;SDS011;9515;50.810;4.418;2022-07-23T09:41:55;8.57;;;7.00;;
18772;SDS011;9515;50.810;4.418;2022-07-23T09:44:21;9.07;;;7.80;;
18772;SDS011;9515;50.810;4.418;2022-07-23T09:46:47;9.45;;;7.63;;
18772;SDS011;9515;50.810;4.418;2022-07-23T09:49:15;7.50;;;6.60;;
18772;SDS011;9515;50.810;4.418;2022-07-23T09:51:47;10.40;;;7.13;;
18772;SDS011;9515;50.810;4.418;2022-07-23T09:54:59;8.18;;;7.38;;
18772;SDS011;9515;50.810;4.418;2022-07-23T09:57:08;6.97;;;6.38;;
18772;SDS011;9515;50.810;4.418;2022-07-23T09:59:39;8.38;;;6.43;;
18772;SDS011;9515;50.810;4.418;2022-07-23T10:02:06;7.55;;;5.80;;
18772;SDS011;9515;50.810;4.418;2022-07-23T10:04:34;7.55;;;5.80;;
18772;SDS011;9515;50.810;4.418;2022-07-23T10:07:01;5.45;;;5.00;;
18772;SDS011;9515;50.810;4.418;2022-07-23T10:09:35;6.00;;;5.38;;
18772;SDS011;9515;50.810;4.418;2022-07-23T10:12:11;6.88;;;4.70;;
18772;SDS011;9515;50.810;4.418;2022-07-23T10:14:57;5.07;;;4.38;;
18772;SDS011;9515;50.810;4.418;2022-07-23T10:17:23;7.30;;;4.63;;
18772;SDS011;9515;50.810;4.418;2022-07-23T10:19:49;5.82;;;4.68;;
18772;SDS011;9515;50.810;4.418;2022-07-23T10:22:24;8.10;;;5.38;;
18772;SDS011;9515;50.810;4.418;2022-07-23T10:41:42;4.43;;;2.92;;
18772;SDS011;9515;50.810;4.418;2022-07-23T10:44:12;2.83;;;2.60;;
18772;SDS011;9515;50.810;4.418;2022-07-23T10:46:56;1.83;;;1.73;;
18772;SDS011;9515;50.810;4.418;2022-07-23T10:49:35;2.58;;;2.35;;
18772;SDS011;9515;50.810;4.418;2022-07-23T10:54:55;3.10;;;2.90;;
18772;SDS011;9515;50.810;4.418;2022-07-23T10:57:47;3.22;;;2.92;;
18772;SDS011;9515;50.810;4.418;2022-07-23T11:00:24;3.38;;;3.08;;
18772;SDS011;9515;50.810;4.418;2022-07-23T11:02:52;3.95;;;2.95;;
18772;SDS011;9515;50.810;4.418;2022-07-23T11:05:20;3.72;;;3.28;;
18772;SDS011;9515;50.810;4.418;2022-07-23T11:08:13;3.42;;;2.72;;
18772;SDS011;9515;50.810;4.418;2022-07-23T11:10:43;2.95;;;2.47;;
18772;SDS011;9515;50.810;4.418;2022-07-23T11:35:01;4.25;;;3.95;;
18772;SDS011;9515;50.810;4.418;2022-07-23T11:37:10;3.50;;;3.20;;
18772;SDS011;9515;50.810;4.418;2022-07-23T11:39:37;4.57;;;3.00;;
18772;SDS011;9515;50.810;4.418;2022-07-23T11:42:04;6.03;;;3.63;;
18772;SDS011;9515;50.810;4.418;2022-07-23T11:44:33;5.28;;;4.35;;
18772;SDS011;9515;50.810;4.418;2022-07-23T11:47:07;6.57;;;4.43;;
18772;SDS011;9515;50.810;4.418;2022-07-23T11:49:34;4.63;;;4.22;;
18772;SDS011;9515;50.810;4.418;2022-07-23T11:54:32;5.60;;;4.28;;
18772;SDS011;9515;50.810;4.418;2022-07-23T11:57:00;3.85;;;3.55;;
18772;SDS011;9515;50.810;4.418;2022-07-23T11:59:28;4.05;;;3.40;;
18772;SDS011;9515;50.810;4.418;2022-07-23T12:02:00;4.50;;;3.72;;
18772;SDS011;9515;50.810;4.418;2022-07-23T12:04:41;6.22;;;4.57;;
18772;SDS011;9515;50.810;4.418;2022-07-23T12:07:26;4.00;;;3.25;;
18772;SDS011;9515;50.810;4.418;2022-07-23T12:09:55;4.65;;;3.45;;
18772;SDS011;9515;50.810;4.418;2022-07-23T12:12:22;3.90;;;3.60;;
18772;SDS011;9515;50.810;4.418;2022-07-23T12:14:51;4.95;;;3.38;;
18772;SDS011;9515;50.810;4.418;2022-07-23T12:17:21;4.88;;;3.22;;
18772;SDS011;9515;50.810;4.418;2022-07-23T12:19:53;6.65;;;3.30;;
18772;SDS011;9515;50.810;4.418;2022-07-23T12:22:20;4.07;;;3.47;;
18772;SDS011;9515;50.810;4.418;2022-07-23T12:27:20;3.40;;;3.10;;
18772;SDS011;9515;50.810;4.418;2022-07-23T12:29:47;4.25;;;3.83;;
18772;SDS011;9515;50.810;4.418;2022-07-23T12:32:20;3.72;;;3.33;;
18772;SDS011;9515;50.810;4.418;2022-07-23T12:35:04;3.88;;;3.47;;
18772;SDS011;9515;50.810;4.418;2022-07-23T12:37:37;4.60;;;3.70;;
18772;SDS011;9515;50.810;4.418;2022-07-23T12:42:52;6.63;;;4.90;;
18772;SDS011;9515;50.810;4.418;2022-07-23T12:45:41;4.13;;;3.70;;
18772;SDS011;9515;50.810;4.418;2022-07-23T12:48:08;5.95;;;4.20;;
18772;SDS011;9515;50.810;4.418;2022-07-23T12:50:41;5.20;;;4.68;;
18772;SDS011;9515;50.810;4.418;2022-07-23T12:53:11;7.40;;;4.35;;
18772;SDS011;9515;50.810;4.418;2022-07-23T12:55:39;4.70;;;4.30;;
18772;SDS011;9515;50.810;4.418;2022-07-23T12:58:13;5.32;;;4.20;;
18772;SDS011;9515;50.810;4.418;2022-07-23T13:01:00;4.68;;;3.78;;
18772;SDS011;9515;50.810;4.418;2022-07-23T13:03:30;4.15;;;3.75;;
18772;SDS011;9515;50.810;4.418;2022-07-23T13:06:03;5.45;;;4.30;;
18772;SDS011;9515;50.810;4.418;2022-07-23T13:08:31;6.63;;;4.80;;
18772;SDS011;9515;50.810;4.418;2022-07-23T13:10:58;4.97;;;4.03;;
18772;SDS011;9515;50.810;4.418;2022-07-23T13:13:27;5.50;;;5.00;;
18772;SDS011;9515;50.810;4.418;2022-07-23T13:15:54;6.13;;;4.28;;
18772;SDS011;9515;50.810;4.418;2022-07-23T13:18:21;7.53;;;5.00;;
18772;SDS011;9515;50.810;4.418;2022-07-23T13:20:47;6.00;;;4.63;;
18772;SDS011;9515;50.810;4.418;2022-07-23T13:23:13;4.43;;;4.00;;
18772;SDS011;9515;50.810;4.418;2022-07-23T13:25:40;6.72;;;5.55;;
18772;SDS011;9515;50.810;4.418;2022-07-23T13:28:06;12.13;;;6.75;;
18772;SDS011;9515;50.810;4.418;2022-07-23T13:30:32;8.45;;;6.63;;
18772;SDS011;9515;50.810;4.418;2022-07-23T13:32:58;6.63;;;6.10;;
18772;SDS011;9515;50.810;4.418;2022-07-23T13:35:24;9.18;;;6.80;;
18772;SDS011;9515;50.810;4.418;2022-07-23T13:37:50;6.55;;;5.95;;
18772;SDS011;9515;50.810;4.418;2022-07-23T13:40:16;5.03;;;4.60;;
18772;SDS011;9515;50.810;4.418;2022-07-23T13:42:42;4.55;;;3.97;;
18772;SDS011;9515;50.810;4.418;2022-07-23T13:45:07;6.43;;;4.20;;
18772;SDS011;9515;50.810;4.418;2022-07-23T13:47:33;5.13;;;4.65;;
18772;SDS011;9515;50.810;4.418;2022-07-23T13:49:59;4.97;;;4.13;;
18772;SDS011;9515;50.810;4.418;2022-07-23T13:52:25;5.20;;;4.65;;
18772;SDS011;9515;50.810;4.418;2022-07-23T13:54:50;4.75;;;4.32;;
18772;SDS011;9515;50.810;4.418;2022-07-23T13:57:16;4.78;;;4.13;;
18772;SDS011;9515;50.810;4.418;2022-07-23T13:59:42;5.97;;;4.82;;
18772;SDS011;9515;50.810;4.418;2022-07-23T14:02:08;6.53;;;4.30;;
18772;SDS011;9515;50.810;4.418;2022-07-23T14:04:34;5.30;;;4.80;;
18772;SDS011;9515;50.810;4.418;2022-07-23T14:07:00;4.85;;;4.32;;
18772;SDS011;9515;50.810;4.418;2022-07-23T14:09:26;4.95;;;4.53;;
18772;SDS011;9515;50.810;4.418;2022-07-23T14:11:52;7.13;;;4.50;;
18772;SDS011;9515;50.810;4.418;2022-07-23T14:14:18;6.25;;;4.20;;
18772;SDS011;9515;50.810;4.418;2022-07-23T14:16:44;4.95;;;4.53;;
18772;SDS011;9515;50.810;4.418;2022-07-23T14:19:10;5.97;;;4.70;;
18772;SDS011;9515;50.810;4.418;2022-07-23T14:21:36;5.15;;;4.65;;
18772;SDS011;9515;50.810;4.418;2022-07-23T14:24:02;5.07;;;4.40;;
18772;SDS011;9515;50.810;4.418;2022-07-23T14:26:28;5.45;;;4.90;;
18772;SDS011;9515;50.810;4.418;2022-07-23T14:28:54;5.43;;;4.60;;
18772;SDS011;9515;50.810;4.418;2022-07-23T14:31:21;5.80;;;4.90;;
18772;SDS011;9515;50.810;4.418;2022-07-23T14:33:47;6.00;;;5.43;;
18772;SDS011;9515;50.810;4.418;2022-07-23T14:36:13;6.55;;;5.18;;
18772;SDS011;9515;50.810;4.418;2022-07-23T14:38:39;5.60;;;5.20;;
18772;SDS011;9515;50.810;4.418;2022-07-23T14:41:04;5.20;;;4.72;;
18772;SDS011;9515;50.810;4.418;2022-07-23T14:43:32;6.93;;;5.38;;
18772;SDS011;9515;50.810;4.418;2022-07-23T14:45:58;8.88;;;5.10;;
18772;SDS011;9515;50.810;4.418;2022-07-23T14:48:23;5.55;;;5.05;;
18772;SDS011;9515;50.810;4.418;2022-07-23T14:50:49;7.68;;;5.20;;
18772;SDS011;9515;50.810;4.418;2022-07-23T14:53:15;5.68;;;5.10;;
18772;SDS011;9515;50.810;4.418;2022-07-23T14:55:40;5.75;;;5.20;;
18772;SDS011;9515;50.810;4.418;2022-07-23T14:58:06;7.10;;;4.95;;
18772;SDS011;9515;50.810;4.418;2022-07-23T15:00:32;7.70;;;5.13;;
18772;SDS011;9515;50.810;4.418;2022-07-23T15:02:58;6.40;;;5.25;;
18772;SDS011;9515;50.810;4.418;2022-07-23T15:05:23;5.40;;;4.90;;
18772;SDS011;9515;50.810;4.418;2022-07-23T15:07:49;6.50;;;5.13;;
18772;SDS011;9515;50.810;4.418;2022-07-23T15:10:15;5.57;;;5.13;;
18772;SDS011;9515;50.810;4.418;2022-07-23T15:12:41;5.35;;;4.85;;
18772;SDS011;9515;50.810;4.418;2022-07-23T15:15:07;5.32;;;4.82;;
18772;SDS011;9515;50.810;4.418;2022-07-23T15:17:33;5.47;;;4.97;;
18772;SDS011;9515;50.810;4.418;2022-07-23T15:19:59;5.55;;;5.05;;
18772;SDS011;9515;50.810;4.418;2022-07-23T15:22:25;5.85;;;5.30;;
18772;SDS011;9515;50.810;4.418;2022-07-23T15:24:50;6.03;;;5.38;;
18772;SDS011;9515;50.810;4.418;2022-07-23T15:27:16;7.13;;;5.13;;
18772;SDS011;9515;50.810;4.418;2022-07-23T15:29:43;7.20;;;5.07;;
18772;SDS011;9515;50.810;4.418;2022-07-23T15:32:09;6.72;;;5.32;;
18772;SDS011;9515;50.810;4.418;2022-07-23T15:34:36;5.70;;;5.00;;
18772;SDS011;9515;50.810;4.418;2022-07-23T15:37:02;5.40;;;5.00;;
18772;SDS011;9515;50.810;4.418;2022-07-23T15:39:30;5.65;;;4.85;;
18772;SDS011;9515;50.810;4.418;2022-07-23T15:41:57;7.15;;;5.00;;
18772;SDS011;9515;50.810;4.418;2022-07-23T15:44:24;5.38;;;4.85;;
18772;SDS011;9515;50.810;4.418;2022-07-23T15:46:50;7.65;;;5.40;;